Time;durP1;ratioP1;P1;durP2;ratioP2;P2;SDS_P1;SDS_P2;PMS_P1;PMS_P2;Temp;Humidity;BMP_temperature;BMP_pressure;BME280_temperature;BME280_humidity;BME280_pressure;Samples;Min_cycle;Max_cycle;Signal;HPM_P1;HPM_P2
2022/11/10 00:00:44;;;;;;;18.92;4.95;;;;;;;;;;5088394;28;20468;-76
2022/11/10 00:03:11;;;;;;;16.57;5.10;;;9.50;99.90;;;;;;5112471;28;20490;-77
2022/11/10 00:05:38;;;;;;;11.88;4.78;;;;;;;;;;5112531;28;20426;-77
2022/11/10 00:08:04;;;;;;;15.85;4.70;;;;;;;;;;5096780;28;20473;-77
2022/11/10 00:10:31;;;;;;;16.27;4.47;;;;;;;;;;5111800;28;20424;-77
2022/11/10 00:13:01;;;;;;;15.95;4.68;;;;;;;;;;5111101;28;20426;-77
2022/11/10 00:18:11;;;;;;;16.33;4.40;;;;;;;;;;5113488;28;20961;-77
2022/11/10 00:20:37;;;;;;;17.65;4.93;;;;;;;;;;5112372;28;20507;-77
2022/11/10 00:23:03;;;;;;;14.48;4.80;;;;;;;;;;5111993;28;20410;-76
2022/11/10 00:25:31;;;;;;;17.88;4.80;;;9.70;99.90;;;;;;5111427;27;20808;-76
2022/11/10 00:27:58;;;;;;;18.98;4.53;;;;;;;;;;5113493;28;20402;-76
2022/11/10 00:30:25;;;;;;;15.18;4.40;;;;;;;;;;5111715;28;20463;-76
2022/11/10 00:32:51;;;;;;;19.90;4.80;;;;;;;;;;5112568;28;20506;-76
2022/11/10 00:35:17;;;;;;;16.70;4.47;;;;;;;;;;5114514;27;20535;-77
2022/11/10 00:37:43;;;;;;;15.60;4.15;;;;;;;;;;5115036;27;20421;-77
2022/11/10 00:40:10;;;;;;;20.60;5.03;;;;;;;;;;5113933;27;20449;-77
2022/11/10 00:42:36;;;;;;;16.92;5.13;;;;;;;;;;5100283;27;20394;-76
2022/11/10 00:45:02;;;;;;;16.37;5.43;;;;;;;;;;5115988;27;20811;-76
2022/11/10 00:47:28;;;;;;;17.05;5.65;;;;;;;;;;5115138;27;20413;-75
2022/11/10 00:49:54;;;;;;;21.17;5.60;;;;;;;;;;5095148;28;20416;-77
2022/11/10 00:52:20;;;;;;;17.08;5.20;;;;;;;;;;5090909;28;20412;-77
2022/11/10 00:54:46;;;;;;;17.90;5.50;;;;;;;;;;5111560;27;21029;-77
2022/11/10 00:57:12;;;;;;;19.73;5.65;;;;;;;;;;5113800;27;20953;-74
2022/11/10 00:59:38;;;;;;;17.63;5.63;;;;;;;;;;5113299;27;20919;-73
2022/11/10 01:02:04;;;;;;;20.40;5.65;;;;;;;;;;5097150;27;20470;-73
2022/11/10 01:04:30;;;;;;;18.85;5.85;;;;;;;;;;5114308;27;20419;-73
2022/11/10 01:06:56;;;;;;;18.48;5.47;;;;;;;;;;5114249;27;20918;-73
2022/11/10 01:09:22;;;;;;;16.65;5.40;;;;;;;;;;5081726;27;20904;-73
2022/11/10 01:11:49;;;;;;;16.90;5.85;;;;;;;;;;5113162;27;20410;-73
2022/11/10 01:14:15;;;;;;;18.02;6.25;;;;;;;;;;5115234;27;20448;-74
2022/11/10 01:16:41;;;;;;;18.48;5.95;;;;;;;;;;5113679;27;20407;-73
2022/11/10 01:19:07;;;;;;;19.40;6.50;;;;;;;;;;5116827;27;20720;-74
2022/11/10 01:21:33;;;;;;;20.17;6.82;;;;;;;;;;5113811;27;20475;-74
2022/11/10 01:24:00;;;;;;;19.55;6.97;;;;;;;;;;5090062;27;20476;-73
2022/11/10 01:26:26;;;;;;;25.63;6.80;;;;;;;;;;5113378;27;20430;-74
2022/11/10 01:28:52;;;;;;;18.50;6.32;;;;;;;;;;5099142;27;20402;-73
2022/11/10 01:31:19;;;;;;;24.30;6.93;;;;;;;;;;5096922;27;20406;-74
2022/11/10 01:33:45;;;;;;;22.02;6.55;;;;;;;;;;5116043;27;20410;-73
2022/11/10 01:36:11;;;;;;;24.20;7.35;;;;;;;;;;5109247;28;20594;-73
2022/11/10 01:38:39;;;;;;;20.60;7.13;;;;;;;;;;5095566;28;20412;-73
2022/11/10 01:41:08;;;;;;;24.60;7.35;;;;;;;;;;5112820;28;20399;-73
2022/11/10 01:43:34;;;;;;;23.15;7.03;;;;;;;;;;5110502;28;20498;-73
2022/11/10 01:46:00;;;;;;;18.85;6.75;;;;;;;;;;5111520;28;20790;-74
2022/11/10 01:48:32;;;;;;;19.58;6.50;;;;;;;;;;5109938;28;20416;-74
2022/11/10 01:51:05;;;;;;;19.17;6.77;;;9.40;99.90;;;;;;5109955;28;20779;-74
2022/11/10 01:53:34;;;;;;;21.45;6.80;;;;;;;;;;5110739;28;20424;-74
2022/11/10 01:56:01;;;;;;;21.70;7.05;;;;;;;;;;5111748;28;20968;-74
2022/11/10 01:58:30;;;;;;;24.80;7.13;;;;;;;;;;5093620;28;20469;-74
2022/11/10 02:00:56;;;;;;;23.02;6.88;;;;;;;;;;5098463;28;20409;-74
2022/11/10 02:03:25;;;;;;;23.05;7.05;;;;;;;;;;5090808;28;20417;-74
2022/11/10 02:05:51;;;;;;;19.30;6.57;;;;;;;;;;5109515;28;20507;-74
2022/11/10 02:08:18;;;;;;;22.35;7.22;;;;;;;;;;5092359;28;20420;-74
2022/11/10 02:10:44;;;;;;;20.73;6.93;;;;;;;;;;5111248;28;20416;-74
2022/11/10 02:13:11;;;;;;;23.53;7.10;;;9.30;99.90;;;;;;5109807;28;20432;-74
2022/11/10 02:15:37;;;;;;;22.58;7.57;;;9.30;99.90;;;;;;5093212;28;20416;-74
2022/11/10 02:18:03;;;;;;;23.45;6.95;;;;;;;;;;5108665;28;20504;-74
2022/11/10 02:20:29;;;;;;;25.58;7.15;;;;;;;;;;5108024;28;20824;-74
2022/11/10 02:22:55;;;;;;;17.63;6.60;;;;;;;;;;5110164;28;20507;-74
2022/11/10 02:25:22;;;;;;;23.27;6.65;;;;;;;;;;5111890;28;20404;-74
2022/11/10 02:27:48;;;;;;;22.43;6.50;;;;;;;;;;5109635;28;20453;-74
2022/11/10 02:30:15;;;;;;;23.05;6.85;;;;;;;;;;5107409;28;20427;-74
2022/11/10 02:32:41;;;;;;;19.15;6.40;;;;;;;;;;5110762;28;20967;-74
2022/11/10 02:35:07;;;;;;;19.83;6.25;;;;;;;;;;5111877;28;20462;-74
2022/11/10 02:37:33;;;;;;;22.23;6.88;;;;;;;;;;5108840;28;20986;-74
2022/11/10 02:39:59;;;;;;;23.55;6.50;;;;;;;;;;5107955;28;20438;-74
2022/11/10 02:42:25;;;;;;;23.25;6.40;;;;;;;;;;5099185;28;20444;-74
2022/11/10 02:44:51;;;;;;;24.67;7.00;;;;;;;;;;5108926;28;20431;-74
2022/11/10 02:47:18;;;;;;;21.70;6.75;;;;;;;;;;5108209;28;20408;-74
2022/11/10 02:49:44;;;;;;;23.83;7.00;;;;;;;;;;5109330;28;20926;-74
2022/11/10 02:52:10;;;;;;;23.80;7.18;;;;;;;;;;5108315;28;20416;-74
2022/11/10 02:54:36;;;;;;;20.95;6.63;;;;;;;;;;5107042;28;20462;-72
2022/11/10 02:57:02;;;;;;;21.23;6.00;;;;;;;;;;5092559;28;20503;-72
2022/11/10 02:59:28;;;;;;;21.25;6.20;;;;;;;;;;5107508;28;20444;-72
2022/11/10 03:01:54;;;;;;;21.45;6.22;;;;;;;;;;5110439;28;20420;-72
2022/11/10 03:04:20;;;;;;;23.42;6.28;;;;;;;;;;5109485;28;20424;-72
2022/11/10 03:06:46;;;;;;;17.60;5.80;;;;;;;;;;5108530;28;20427;-72
2022/11/10 03:09:12;;;;;;;24.25;6.35;;;;;;;;;;5109893;28;20416;-73
2022/11/10 03:11:38;;;;;;;23.67;6.50;;;;;;;;;;5088374;28;20510;-73
2022/11/10 03:14:04;;;;;;;22.30;6.27;;;;;;;;;;5097901;28;20495;-73
2022/11/10 03:16:30;;;;;;;21.08;6.35;;;;;;;;;;5109788;28;20424;-73
2022/11/10 03:18:56;;;;;;;21.65;6.10;;;;;;;;;;5087947;28;20457;-73
2022/11/10 03:21:22;;;;;;;21.30;6.07;;;;;;;;;;5106167;28;20423;-74
2022/11/10 03:23:49;;;;;;;22.48;5.93;;;;;;;;;;5109844;28;20414;-73
2022/11/10 03:26:15;;;;;;;21.27;6.32;;;;;;;;;;5108252;28;20420;-73
2022/11/10 03:28:41;;;;;;;18.23;5.90;;;;;;;;;;5109454;28;20400;-73
2022/11/10 03:31:07;;;;;;;23.30;6.10;;;;;;;;;;5089660;28;20556;-74
2022/11/10 03:33:33;;;;;;;18.30;6.15;;;;;;;;;;5099462;28;20455;-73
2022/11/10 03:35:59;;;;;;;20.52;6.10;;;;;;;;;;5112844;28;20420;-73
2022/11/10 03:38:25;;;;;;;21.98;5.72;;;;;;;;;;5112853;27;20422;-74
2022/11/10 03:40:51;;;;;;;21.03;6.07;;;;;;;;;;5111998;27;20437;-74
2022/11/10 03:43:17;;;;;;;27.58;6.60;;;;;;;;;;5096230;28;20410;-74
2022/11/10 03:45:46;;;;;;;22.95;6.50;;;;;;;;;;5111955;28;20925;-74
2022/11/10 03:48:12;;;;;;;23.27;6.40;;;;;;;;;;5094998;28;20419;-74
2022/11/10 03:50:38;;;;;;;22.00;6.65;;;;;;;;;;5111982;28;20468;-74
2022/11/10 03:53:04;;;;;;;22.23;6.53;;;;;;;;;;5093590;28;20420;-74
2022/11/10 03:55:30;;;;;;;27.17;7.60;;;;;;;;;;5112703;28;20831;-74
2022/11/10 03:58:00;;;;;;;22.77;6.53;;;;;;;;;;5108987;28;20415;-74
2022/11/10 04:00:28;;;;;;;21.15;7.00;;;;;;;;;;5112191;28;20901;-74
2022/11/10 04:02:54;;;;;;;20.57;7.30;;;;;;;;;;5112116;28;20479;-74
2022/11/10 04:10:53;;;;;;;23.55;7.65;;;;;;;;;;5116320;27;20410;-74
2022/11/10 04:16:04;;;;;;;28.90;7.68;;;;;;;;;;5115671;27;20771;-74
2022/11/10 04:18:30;;;;;;;20.85;7.53;;;;;;;;;;5117032;27;20398;-74
2022/11/10 04:20:58;;;;;;;28.20;8.20;;;;;;;;;;5115335;27;20414;-74
2022/11/10 04:23:27;;;;;;;26.87;7.97;;;9.70;99.90;;;;;;5098967;27;20901;-74
2022/11/10 04:28:48;;;;;;;27.00;8.10;;;;;;;;;;5117589;27;20399;-74
2022/11/10 04:31:16;;;;;;;26.90;8.13;;;9.70;99.90;;;;;;5112247;28;20507;-74
2022/11/10 04:33:42;;;;;;;33.03;8.80;;;;;;;;;;5107534;27;20414;-74
2022/11/10 04:36:11;;;;;;;25.48;7.45;;;9.60;99.90;;;;;;5115149;27;20434;-74
2022/11/10 04:38:37;;;;;;;26.02;7.63;;;;;;;;;;5112421;27;20921;-74
2022/11/10 04:41:03;;;;;;;25.92;7.53;;;;;;;;;;5097595;27;20551;-74
2022/11/10 04:43:30;;;;;;;28.63;8.05;;;;;;;;;;5115051;27;20864;-75
2022/11/10 04:45:56;;;;;;;29.02;8.02;;;9.50;99.90;;;;;;5093763;28;20411;-74
2022/11/10 04:48:23;;;;;;;28.30;7.70;;;;;;;;;;5108147;27;20422;-74
2022/11/10 04:50:49;;;;;;;27.15;7.57;;;;;;;;;;5114687;27;20820;-74
2022/11/10 04:53:15;;;;;;;28.35;7.25;;;;;;;;;;5116702;27;20751;-74
2022/11/10 04:55:44;;;;;;;28.05;7.22;;;9.70;99.90;;;;;;5115827;27;20491;-74
2022/11/10 04:58:11;;;;;;;24.05;7.35;;;9.70;99.90;;;;;;5099109;27;20410;-74
2022/11/10 05:00:38;;;;;;;25.30;7.47;;;;;;;;;;5115229;27;20414;-74
2022/11/10 05:03:05;;;;;;;29.33;8.40;;;;;;;;;;5115187;27;20471;-74
2022/11/10 05:05:31;;;;;;;25.33;7.28;;;;;;;;;;5115445;27;20406;-74
2022/11/10 05:07:57;;;;;;;24.58;7.78;;;;;;;;;;5113351;28;20432;-74
2022/11/10 05:10:24;;;;;;;23.37;6.80;;;;;;;;;;5108059;27;20475;-74
2022/11/10 05:12:55;;;;;;;27.67;7.93;;;9.80;99.90;;;;;;5115859;27;20423;-74
2022/11/10 05:15:22;;;;;;;27.05;7.20;;;;;;;;;;5114898;27;20501;-73
2022/11/10 05:17:52;;;;;;;22.00;7.13;;;10.00;99.90;;;;;;5114060;27;20410;-73
2022/11/10 05:20:20;;;;;;;24.43;7.00;;;9.70;99.90;;;;;;5113776;27;20496;-73
2022/11/10 05:23:36;;;;;;;28.00;6.47;;;9.70;99.90;;;;;;5115023;27;20723;-74
2022/11/10 05:25:34;;;;;;;25.45;7.00;;;;;;;;;;5115392;27;20501;-74
2022/11/10 05:28:00;;;;;;;25.08;6.72;;;;;;;;;;5115321;27;20467;-74
2022/11/10 05:30:26;;;;;;;24.33;6.32;;;;;;;;;;5096899;27;20418;-74
2022/11/10 05:32:52;;;;;;;28.30;7.05;;;;;;;;;;5112879;27;20417;-74
2022/11/10 05:35:19;;;;;;;23.17;6.57;;;;;;;;;;5115626;27;20494;-73
2022/11/10 05:37:45;;;;;;;24.30;6.20;;;;;;;;;;5114799;27;20427;-74
2022/11/10 05:40:11;;;;;;;28.40;6.53;;;;;;;;;;5115299;27;20416;-74
2022/11/10 05:42:44;;;;;;;23.48;6.68;;;;;;;;;;5114184;27;20411;-73
2022/11/10 05:45:10;;;;;;;27.52;7.05;;;;;;;;;;5112635;27;20423;-74
2022/11/10 05:47:36;;;;;;;25.63;6.03;;;;;;;;;;5092118;28;20877;-73
2022/11/10 05:50:03;;;;;;;22.77;5.78;;;;;;;;;;5096068;27;20891;-74
2022/11/10 05:52:29;;;;;;;27.02;6.38;;;;;;;;;;5114794;27;20898;-74
2022/11/10 05:54:55;;;;;;;27.97;7.03;;;;;;;;;;5115530;27;20930;-74
2022/11/10 05:57:21;;;;;;;22.80;6.15;;;;;;;;;;5111214;27;20449;-74
2022/11/10 05:59:47;;;;;;;25.40;6.63;;;;;;;;;;5111608;27;20922;-73
2022/11/10 06:02:13;;;;;;;29.43;7.50;;;;;;;;;;5112460;27;20414;-73
2022/11/10 06:04:39;;;;;;;24.25;6.65;;;;;;;;;;5086429;28;20420;-73
2022/11/10 06:07:10;;;;;;;29.75;7.22;;;;;;;;;;5119251;27;20414;-74
2022/11/10 06:09:36;;;;;;;29.15;7.43;;;;;;;;;;5115960;27;20440;-73
2022/11/10 06:12:03;;;;;;;28.10;7.57;;;;;;;;;;5109928;27;20417;-73
2022/11/10 06:14:29;;;;;;;31.05;8.20;;;;;;;;;;5113515;27;20418;-73
2022/11/10 06:16:55;;;;;;;34.97;9.88;;;;;;;;;;5110201;27;20423;-73
2022/11/10 06:19:21;;;;;;;34.70;8.70;;;;;;;;;;5111748;27;20419;-73
2022/11/10 06:21:47;;;;;;;28.90;7.30;;;;;;;;;;5112031;27;20419;-73
2022/11/10 06:24:13;;;;;;;30.27;8.48;;;;;;;;;;5131817;27;20500;-74
2022/11/10 06:26:40;;;;;;;33.67;10.20;;;;;;;;;;5095459;27;20501;-74
2022/11/10 06:29:06;;;;;;;27.85;8.10;;;;;;;;;;5109384;27;20449;-74
2022/11/10 06:31:32;;;;;;;32.47;7.70;;;;;;;;;;5098104;27;20447;-73
2022/11/10 06:33:58;;;;;;;26.70;7.40;;;;;;;;;;5093539;28;20426;-74
2022/11/10 06:36:24;;;;;;;29.08;8.30;;;;;;;;;;5095178;27;20461;-73
2022/11/10 06:38:51;;;;;;;28.70;8.18;;;;;;;;;;5112690;27;20422;-74
2022/11/10 06:41:17;;;;;;;25.70;7.70;;;;;;;;;;5112330;27;20472;-74
2022/11/10 06:43:43;;;;;;;26.77;7.72;;;;;;;;;;5096827;27;20410;-74
2022/11/10 06:46:09;;;;;;;31.83;7.90;;;;;;;;;;5093417;27;20545;-75
2022/11/10 06:48:35;;;;;;;24.58;8.27;;;;;;;;;;5112401;27;20473;-75
2022/11/10 06:51:01;;;;;;;31.00;7.57;;;9.70;99.90;;;;;;5114258;27;20410;-75
2022/11/10 06:53:27;;;;;;;26.60;7.32;;;;;;;;;;5112790;27;20935;-75
2022/11/10 06:55:54;;;;;;;28.15;7.80;;;;;;;;;;5095219;27;20437;-74
2022/11/10 06:58:20;;;;;;;25.60;7.80;;;;;;;;;;5110739;27;20456;-75
2022/11/10 07:00:46;;;;;;;26.67;7.55;;;;;;;;;;5111619;27;20410;-74
2022/11/10 07:03:13;;;;;;;32.95;8.85;;;9.90;99.90;;;;;;5096556;27;20819;-74
2022/11/10 07:05:39;;;;;;;29.48;7.30;;;;;;;;;;5112238;27;20466;-74
2022/11/10 07:08:14;;;;;;;35.40;8.02;;;9.90;99.90;;;;;;5111271;27;20430;-75
2022/11/10 07:10:41;;;;;;;30.05;7.43;;;;;;;;;;5094571;27;20410;-75
2022/11/10 07:13:08;;;;;;;25.98;6.93;;;10.30;99.90;;;;;;5110530;27;20512;-75
2022/11/10 07:15:35;;;;;;;21.80;6.43;;;;;;;;;;5096067;27;21522;-74
2022/11/10 07:18:01;;;;;;;26.65;6.75;;;;;;;;;;5112950;27;20434;-74
2022/11/10 07:20:28;;;;;;;29.67;6.93;;;;;;;;;;5112693;27;20406;-75
2022/11/10 07:22:58;;;;;;;29.52;7.03;;;;;;;;;;5096881;27;20408;-75
2022/11/10 07:25:24;;;;;;;25.00;6.38;;;;;;;;;;5109749;27;20460;-74
2022/11/10 07:27:57;;;;;;;26.25;6.40;;;;;;;;;;5113762;27;20426;-74
2022/11/10 07:30:24;;;;;;;25.73;6.43;;;;;;;;;;5101802;27;20418;-75
2022/11/10 07:33:00;;;;;;;25.13;5.90;;;;;;;;;;5112874;28;20463;-74
2022/11/10 07:35:27;;;;;;;28.77;6.70;;;;;;;;;;5106510;27;20433;-74
2022/11/10 07:38:00;;;;;;;32.40;7.18;;;;;;;;;;5103961;27;20432;-74
2022/11/10 07:40:26;;;;;;;26.13;6.63;;;;;;;;;;5100212;28;20501;-74
2022/11/10 07:42:52;;;;;;;28.45;6.97;;;;;;;;;;5108481;28;20412;-74
2022/11/10 07:45:19;;;;;;;28.88;7.45;;;;;;;;;;5089937;28;20835;-74
2022/11/10 07:47:45;;;;;;;26.23;6.80;;;;;;;;;;5088663;28;20772;-74
2022/11/10 07:50:11;;;;;;;27.13;6.60;;;;;;;;;;5108535;28;20810;-75
2022/11/10 07:52:37;;;;;;;24.90;7.22;;;;;;;;;;5105206;28;20423;-75
2022/11/10 07:55:04;;;;;;;33.73;8.60;;;10.00;99.90;;;;;;5095360;28;20424;-75
2022/11/10 07:57:30;;;;;;;26.15;7.68;;;;;;;;;;5106911;28;20416;-75
2022/11/10 07:59:57;;;;;;;25.60;7.53;;;;;;;;;;5106850;28;20456;-75
2022/11/10 08:02:23;;;;;;;27.23;8.02;;;;;;;;;;5090268;28;20412;-75
2022/11/10 08:04:49;;;;;;;28.33;8.13;;;;;;;;;;5088849;28;20996;-75
2022/11/10 08:07:15;;;;;;;30.85;7.97;;;;;;;;;;5090869;28;20435;-75
2022/11/10 08:09:41;;;;;;;27.45;7.90;;;;;;;;;;5105214;28;20416;-75
2022/11/10 08:12:07;;;;;;;28.50;8.38;;;;;;;;;;5108461;28;20497;-73
2022/11/10 08:14:33;;;;;;;24.43;8.10;;;;;;;;;;5105277;28;20907;-74
2022/11/10 08:16:59;;;;;;;28.95;8.00;;;;;;;;;;5086227;28;20790;-74
2022/11/10 08:19:25;;;;;;;26.15;7.55;;;;;;;;;;5106123;28;20448;-75
2022/11/10 08:21:51;;;;;;;22.67;6.83;;;;;;;;;;5109104;28;20404;-75
2022/11/10 08:24:17;;;;;;;22.42;7.20;;;;;;;;;;5089519;28;20415;-76
2022/11/10 08:26:43;;;;;;;22.50;7.35;;;;;;;;;;5070833;28;20428;-75
2022/11/10 08:29:09;;;;;;;23.38;7.88;;;;;;;;;;5106089;28;22261;-75
2022/11/10 08:31:37;;;;;;;24.10;6.65;;;;;;;;;;5105743;28;20423;-75
2022/11/10 08:34:03;;;;;;;28.35;7.65;;;;;;;;;;5072281;28;20455;-75
2022/11/10 08:36:29;;;;;;;30.52;6.93;;;;;;;;;;5105037;28;20443;-75
2022/11/10 08:38:55;;;;;;;23.55;6.93;;;;;;;;;;5103355;28;20414;-76
2022/11/10 08:41:21;;;;;;;26.77;7.35;;;;;;;;;;5086114;28;20510;-74
2022/11/10 08:43:47;;;;;;;24.33;7.43;;;;;;;;;;5107198;28;20420;-74
2022/11/10 08:46:14;;;;;;;23.50;6.20;;;;;;;;;;5106395;28;20499;-74
2022/11/10 08:48:40;;;;;;;30.15;7.70;;;;;;;;;;5106412;28;20420;-74
2022/11/10 08:51:06;;;;;;;24.48;6.25;;;;;;;;;;5087499;28;20424;-73
2022/11/10 08:53:32;;;;;;;24.55;6.85;;;;;;;;;;5106990;28;20448;-74
2022/11/10 08:55:59;;;;;;;24.55;6.38;;;;;;;;;;5108045;28;20416;-74
2022/11/10 08:58:25;;;;;;;25.67;6.50;;;;;;;;;;5092959;28;20480;-74
2022/11/10 09:00:51;;;;;;;25.67;7.70;;;;;;;;;;5110785;28;20446;-74
2022/11/10 09:03:22;;;;;;;22.40;6.80;;;;;;;;;;5092706;28;20831;-75
2022/11/10 09:05:48;;;;;;;22.08;6.57;;;;;;;;;;5107514;28;20810;-74
2022/11/10 09:08:15;;;;;;;27.95;6.78;;;;;;;;;;5091889;28;20418;-74
2022/11/10 09:10:42;;;;;;;20.30;7.37;;;;;;;;;;5105886;28;20424;-74
2022/11/10 09:13:09;;;;;;;17.70;6.77;;;;;;;;;;5110040;28;20903;-74
2022/11/10 09:15:35;;;;;;;23.03;7.00;;;;;;;;;;5105677;28;20432;-74
2022/11/10 09:18:03;;;;;;;24.52;6.70;;;;;;;;;;5107199;28;20422;-74
2022/11/10 09:20:30;;;;;;;24.25;7.13;;;;;;;;;;5105835;28;21070;-75
2022/11/10 09:22:56;;;;;;;26.90;7.45;;;11.70;99.90;;;;;;5094156;28;20487;-75
2022/11/10 09:25:22;;;;;;;25.55;7.70;;;11.40;99.90;;;;;;5108706;28;20408;-75
2022/11/10 09:27:48;;;;;;;21.02;7.80;;;;;;;;;;5111373;28;20420;-74
2022/11/10 09:30:14;;;;;;;24.10;9.02;;;;;;;;;;5108351;28;20412;-74
2022/11/10 09:32:41;;;;;;;25.08;9.32;;;;;;;;;;5107730;28;20420;-74
2022/11/10 09:35:07;;;;;;;28.52;10.05;;;;;;;;;;5110021;28;20439;-74
2022/11/10 09:37:38;;;;;;;26.60;9.73;;;;;;;;;;5102129;27;20501;-74
2022/11/10 09:40:05;;;;;;;32.22;10.70;;;;;;;;;;5110638;27;20978;-75
2022/11/10 09:42:33;;;;;;;27.27;9.82;;;11.60;99.90;;;;;;5109340;27;20411;-74
2022/11/10 09:45:02;;;;;;;22.00;9.45;;;;;;;;;;5111892;27;20957;-75
2022/11/10 09:47:34;;;;;;;29.13;10.10;;;;;;;;;;5108555;27;20419;-75
2022/11/10 09:50:01;;;;;;;25.33;9.48;;;11.70;99.90;;;;;;5111596;27;20449;-75
2022/11/10 09:52:31;;;;;;;26.65;9.75;;;11.90;99.90;;;;;;5112522;27;20446;-75
2022/11/10 09:55:18;;;;;;;27.38;8.95;;;;;;;;;;5120570;27;20482;-74
2022/11/10 09:57:46;;;;;;;22.52;9.13;;;12.00;99.90;;;;;;5094749;27;20469;-75
2022/11/10 10:00:15;;;;;;;23.73;8.53;;;11.90;99.90;;;;;;5111473;27;20485;-74
2022/11/10 10:03:01;;;;;;;24.20;7.95;;;;;;;;;;5094591;27;20475;-75
2022/11/10 10:05:54;;;;;;;26.00;8.13;;;;;;;;;;5112993;27;20927;-75
2022/11/10 10:08:48;;;;;;;25.00;8.03;;;12.10;99.90;;;;;;5109822;27;20414;-75
2022/11/10 10:11:23;;;;;;;23.10;7.95;;;;;;;;;;5091204;27;20487;-74
2022/11/10 10:14:09;;;;;;;25.42;8.63;;;12.40;99.90;;;;;;5110843;27;20505;-74
2022/11/10 10:16:41;;;;;;;24.15;9.25;;;;;;;;;;5129938;27;20422;-74
2022/11/10 10:19:19;;;;;;;25.17;9.05;;;12.40;99.90;;;;;;5108762;28;20416;-74
2022/11/10 10:21:46;;;;;;;26.15;8.77;;;;;;;;;;5093411;27;20425;-73
2022/11/10 10:24:15;;;;;;;20.70;9.07;;;12.30;99.90;;;;;;5129524;27;20406;-74
2022/11/10 10:26:51;;;;;;;23.77;9.00;;;12.40;99.90;;;;;;5105563;27;20509;-74
2022/11/10 10:29:39;;;;;;;23.80;8.38;;;;;;;;;;5112381;27;20858;-74
2022/11/10 10:32:09;;;;;;;21.65;9.05;;;;;;;;;;5108458;27;20937;-74
2022/11/10 10:34:35;;;;;;;26.92;8.68;;;12.60;99.90;;;;;;5093251;28;20420;-74
2022/11/10 10:37:01;;;;;;;23.73;8.50;;;;;;;;;;5096325;27;20548;-74
2022/11/10 10:39:45;;;;;;;24.20;7.60;;;12.80;99.90;;;;;;5108414;27;20891;-74
2022/11/10 10:42:19;;;;;;;21.75;7.85;;;;;;;;;;5089108;27;20521;-74
2022/11/10 10:45:04;;;;;;;25.88;7.63;;;;;;;;;;5089618;28;20768;-72
2022/11/10 10:47:37;;;;;;;24.77;8.00;;;;;;;;;;5095858;27;20422;-73
2022/11/10 10:50:19;;;;;;;20.88;7.20;;;;;;;;;;5114135;27;20418;-73
2022/11/10 10:52:46;;;;;;;23.92;7.05;;;12.60;99.90;;;;;;5113435;27;20422;-73
2022/11/10 10:55:12;;;;;;;25.45;7.30;;;12.70;99.90;;;;;;5113279;27;20418;-73
2022/11/10 10:57:49;;;;;;;20.95;6.57;;;;;;;;;;5113931;27;20418;-73
2022/11/10 11:00:22;;;;;;;26.65;7.43;;;12.60;99.90;;;;;;5096668;27;20407;-74
2022/11/10 11:03:06;;;;;;;22.17;6.63;;;12.90;99.90;;;;;;5106511;27;20935;-74
2022/11/10 11:05:32;;;;;;;26.33;6.82;;;;;;;;;;5129095;27;20418;-73
2022/11/10 11:07:59;;;;;;;20.95;6.82;;;;;;;;;;5131015;27;20442;-74
2022/11/10 11:10:33;;;;;;;21.23;6.57;;;13.10;99.90;;;;;;5112902;27;20435;-74
2022/11/10 11:13:12;;;;;;;22.15;6.13;;;13.10;99.90;;;;;;5114326;27;20482;-74
2022/11/10 11:15:38;;;;;;;21.40;6.38;;;;;;;;;;5110017;27;20435;-74
2022/11/10 11:18:11;;;;;;;20.63;5.50;;;;;;;;;;5103427;27;20929;-73
2022/11/10 11:20:59;;;;;;;20.70;6.10;;;;;;;;;;5107245;27;20966;-74
2022/11/10 11:23:38;;;;;;;22.23;6.22;;;;;;;;;;5113295;27;20429;-75
2022/11/10 11:26:12;;;;;;;21.42;5.45;;;;;;;;;;5113468;27;20426;-74
2022/11/10 11:28:56;;;;;;;16.90;4.88;;;;;;;;;;5113033;27;20427;-76
2022/11/10 11:31:32;;;;;;;24.20;5.25;;;;;;;;;;5112963;27;20457;-75
2022/11/10 11:34:10;;;;;;;23.05;5.63;;;;;;;;;;5109398;28;20423;-75
2022/11/10 11:36:56;;;;;;;17.52;5.30;;;13.50;99.90;;;;;;5093737;27;20422;-74
2022/11/10 11:39:43;;;;;;;21.60;5.37;;;;;;;;;;5088775;28;21531;-75
2022/11/10 11:42:39;;;;;;;19.17;5.65;;;13.70;99.90;;;;;;5087641;28;20426;-75
2022/11/10 11:45:28;;;;;;;19.58;4.85;;;13.80;99.90;;;;;;5069847;28;20557;-74
2022/11/10 11:48:03;;;;;;;24.38;5.60;;;;;;;;;;5091103;28;20452;-75
2022/11/10 11:50:41;;;;;;;20.25;4.93;;;13.60;99.90;;;;;;5097465;28;20512;-75
2022/11/10 11:53:16;;;;;;;20.52;4.75;;;;;;;;;;5100176;28;20416;-75
2022/11/10 11:55:54;;;;;;;19.25;4.78;;;;;;;;;;5090598;28;20432;-74
2022/11/10 11:58:36;;;;;;;19.83;4.20;;;;;;;;;;5079826;28;20424;-74
2022/11/10 12:01:02;;;;;;;15.75;4.07;;;;;;;;;;5099798;28;20400;-75
2022/11/10 12:03:49;;;;;;;16.92;4.03;;;13.60;99.90;;;;;;5099878;28;20423;-74
2022/11/10 12:06:15;;;;;;;21.40;4.25;;;;;;;;;;5087326;28;20518;-74
2022/11/10 12:08:41;;;;;;;19.60;3.70;;;;;;;;;;5097609;28;20925;-75
2022/11/10 12:11:07;;;;;;;18.85;3.88;;;;;;;;;;5084093;28;20430;-75
2022/11/10 12:13:39;;;;;;;20.45;4.10;;;13.60;99.90;;;;;;5084212;28;20903;-75
2022/11/10 12:16:15;;;;;;;18.95;3.92;;;;;;;;;;5094767;28;20439;-74
2022/11/10 12:18:50;;;;;;;17.45;3.75;;;;;;;;;;5087001;28;20422;-74
2022/11/10 12:21:22;;;;;;;21.10;3.80;;;13.50;99.90;;;;;;5078379;28;20934;-74
2022/11/10 12:23:51;;;;;;;15.98;3.63;;;;;;;;;;5087309;28;20418;-75
2022/11/10 12:26:36;;;;;;;21.17;4.00;;;13.70;99.90;;;;;;5067723;28;20429;-74
2022/11/10 12:29:11;;;;;;;21.17;4.03;;;13.70;99.90;;;;;;5094437;28;20412;-75
2022/11/10 12:31:38;;;;;;;18.60;4.28;;;;;;;;;;5085007;28;20423;-77
2022/11/10 12:34:24;;;;;;;24.90;4.45;;;;;;;;;;5059323;28;20409;-76
2022/11/10 12:36:51;;;;;;;17.75;3.95;;;;;;;;;;5089148;28;20432;-75
2022/11/10 12:39:17;;;;;;;22.67;4.13;;;;;;;;;;5088647;28;20422;-76
2022/11/10 12:41:51;;;;;;;25.85;4.13;;;13.60;99.90;;;;;;5103522;28;20419;-76
2022/11/10 12:44:25;;;;;;;23.77;4.13;;;;;;;;;;5080548;28;20420;-76
2022/11/10 12:46:56;;;;;;;20.83;4.07;;;13.20;99.90;;;;;;5072985;28;20428;-76
2022/11/10 12:49:22;;;;;;;17.95;3.55;;;;;;;;;;5088234;28;20526;-75
2022/11/10 12:51:48;;;;;;;18.92;4.05;;;;;;;;;;5081055;28;20415;-75
2022/11/10 12:54:16;;;;;;;17.65;4.10;;;;;;;;;;5089845;28;20426;-75
2022/11/10 12:56:52;;;;;;;17.90;4.32;;;13.40;99.90;;;;;;5081385;28;20462;-75
2022/11/10 12:59:21;;;;;;;17.48;4.72;;;;;;;;;;5080280;28;20424;-76
2022/11/10 13:02:02;;;;;;;20.75;4.20;;;;;;;;;;5106090;27;20462;-75
2022/11/10 13:04:28;;;;;;;16.38;3.85;;;;;;;;;;5077155;28;20427;-75
2022/11/10 13:06:57;;;;;;;17.10;4.13;;;;;;;;;;5078207;28;20444;-75
2022/11/10 13:09:35;;;;;;;17.52;4.00;;;;;;;;;;5078676;28;20449;-76
2022/11/10 13:12:10;;;;;;;16.52;3.80;;;;;;;;;;5088461;28;20450;-76
2022/11/10 13:14:37;;;;;;;17.98;3.80;;;;;;;;;;5072697;28;20429;-76
2022/11/10 13:17:03;;;;;;;19.65;4.18;;;;;;;;;;5090295;28;20429;-77
2022/11/10 13:19:32;;;;;;;20.90;4.03;;;;;;;;;;5110410;28;20421;-76
2022/11/10 13:22:02;;;;;;;16.40;3.50;;;;;;;;;;5081418;28;20421;-76
2022/11/10 13:24:30;;;;;;;18.98;3.55;;;;;;;;;;5090681;28;20419;-76
2022/11/10 13:27:04;;;;;;;19.90;4.10;;;14.00;99.90;;;;;;5069157;28;20915;-76
2022/11/10 13:29:36;;;;;;;15.25;3.83;;;;;;;;;;5092389;28;20456;-76
2022/11/10 13:32:14;;;;;;;17.03;4.60;;;;;;;;;;5087197;28;20521;-76
2022/11/10 13:34:41;;;;;;;17.55;4.90;;;;;;;;;;5089771;28;20451;-75
2022/11/10 13:37:34;;;;;;;21.95;4.68;;;;;;;;;;5110793;27;20590;-76
2022/11/10 13:40:28;;;;;;;21.90;4.30;;;14.20;99.90;;;;;;5075411;28;20464;-76
2022/11/10 13:42:57;;;;;;;20.77;4.40;;;;;;;;;;5060753;28;20540;-78
2022/11/10 13:45:41;;;;;;;19.63;4.00;;;14.30;99.90;;;;;;5083922;28;20435;-76
2022/11/10 13:48:10;;;;;;;19.25;4.28;;;;;;;;;;5086514;28;20836;-75
2022/11/10 13:51:16;;;;;;;17.30;3.70;;;14.40;99.90;;;;;;5084051;28;20901;-76
2022/11/10 13:53:42;;;;;;;17.03;4.17;;;;;;;;;;5088708;28;20878;-76
2022/11/10 13:56:08;;;;;;;18.08;4.40;;;;;;;;;;5069692;28;20503;-76
2022/11/10 13:58:35;;;;;;;16.45;3.85;;;;;;;;;;5085617;28;20421;-76
2022/11/10 14:01:17;;;;;;;18.60;4.00;;;;;;;;;;5087638;28;20414;-76
2022/11/10 14:03:46;;;;;;;16.27;4.10;;;;;;;;;;5068117;28;20428;-76
2022/11/10 14:06:39;;;;;;;14.95;3.67;;;14.00;99.90;;;;;;5083337;28;20461;-75
2022/11/10 14:09:39;;;;;;;18.65;3.67;;;14.00;99.90;;;;;;5063637;28;20438;-76
2022/11/10 14:12:14;;;;;;;17.60;3.72;;;;;;;;;;5088089;28;20422;-76
2022/11/10 14:15:01;;;;;;;14.03;3.60;;;13.90;99.90;;;;;;5068069;28;20426;-76
2022/11/10 14:17:56;;;;;;;19.17;4.82;;;14.10;99.90;;;;;;5083866;28;20817;-76
2022/11/10 14:20:29;;;;;;;17.70;4.10;;;14.40;99.90;;;;;;5071489;28;20459;-75
2022/11/10 14:22:56;;;;;;;16.85;3.80;;;14.20;99.90;;;;;;5063002;28;20850;-78
2022/11/10 14:25:35;;;;;;;23.23;4.30;;;14.00;99.90;;;;;;5071675;28;20418;-75
2022/11/10 14:28:02;;;;;;;17.85;3.70;;;14.30;99.90;;;;;;5067489;28;20483;-74
2022/11/10 14:30:32;;;;;;;20.90;4.63;;;14.00;99.90;;;;;;5081208;28;20977;-74
2022/11/10 14:33:02;;;;;;;16.07;3.73;;;;;;;;;;5081221;28;20413;-74